Shirley, Indiana
Current Conditions -  °F | °C
As of 5:14 PM on Saturday 25 Oct 2014 (Local Time) from KMQJ Reporting Station
Clear Clear  
Wind Chill: 75°   Ceiling: Unl
Heat Index: 75°   Visibility: 10mi
Dew Point: 28°   Wind: 17mph
Humidity: 18%   Direction: 270°W
Pressure: 29.92"   Gusts: NA
Location:  39.89°N, 85.58°W
Report Text: KMQJ 252114Z AUTO 27015KT 10SM CLR 24/M02 A2992 RMK AO1
Loading
Personal Weather Stations






























Interactive Weather Map
Tropical Storm Tracking
New forecast layout! Learn more

10-Day Weather Forecast

Advertisements
Track Severe Weather on mobile